sensor_id;sensor_type;location;lat;lon;timestamp;P1;durP1;ratioP1;P2;durP2;ratioP2
22357;SDS011;11346;50.150;8.150;2023-05-10T00:01:38;1.70;;;0.57;;
22357;SDS011;11346;50.150;8.150;2023-05-10T00:04:05;0.60;;;0.60;;
22357;SDS011;11346;50.150;8.150;2023-05-10T00:06:32;0.40;;;0.40;;
22357;SDS011;11346;50.150;8.150;2023-05-10T00:08:59;0.50;;;0.50;;
22357;SDS011;11346;50.150;8.150;2023-05-10T00:11:28;0.50;;;0.50;;
22357;SDS011;11346;50.150;8.150;2023-05-10T00:13:55;0.67;;;0.67;;
22357;SDS011;11346;50.150;8.150;2023-05-10T00:16:22;0.87;;;0.73;;
22357;SDS011;11346;50.150;8.150;2023-05-10T00:18:49;3.67;;;0.60;;
22357;SDS011;11346;50.150;8.150;2023-05-10T00:21:16;3.20;;;0.53;;
22357;SDS011;11346;50.150;8.150;2023-05-10T00:23:43;0.50;;;0.50;;
22357;SDS011;11346;50.150;8.150;2023-05-10T00:26:10;0.70;;;0.70;;
22357;SDS011;11346;50.150;8.150;2023-05-10T00:28:39;0.70;;;0.70;;
22357;SDS011;11346;50.150;8.150;2023-05-10T00:31:06;1.87;;;0.70;;
22357;SDS011;11346;50.150;8.150;2023-05-10T00:33:33;1.53;;;0.70;;
22357;SDS011;11346;50.150;8.150;2023-05-10T00:36:00;2.47;;;0.70;;
22357;SDS011;11346;50.150;8.150;2023-05-10T00:38:27;0.53;;;0.53;;
22357;SDS011;11346;50.150;8.150;2023-05-10T00:40:54;2.50;;;0.73;;
22357;SDS011;11346;50.150;8.150;2023-05-10T00:43:21;0.53;;;0.53;;
22357;SDS011;11346;50.150;8.150;2023-05-10T00:45:49;0.50;;;0.50;;
22357;SDS011;11346;50.150;8.150;2023-05-10T00:48:16;1.43;;;0.70;;
22357;SDS011;11346;50.150;8.150;2023-05-10T00:50:43;0.60;;;0.60;;
22357;SDS011;11346;50.150;8.150;2023-05-10T00:53:11;0.60;;;0.60;;
22357;SDS011;11346;50.150;8.150;2023-05-10T00:55:38;0.70;;;0.70;;
22357;SDS011;11346;50.150;8.150;2023-05-10T00:58:06;1.20;;;0.70;;
22357;SDS011;11346;50.150;8.150;2023-05-10T01:00:33;0.70;;;0.70;;
22357;SDS011;11346;50.150;8.150;2023-05-10T01:03:02;0.60;;;0.60;;
22357;SDS011;11346;50.150;8.150;2023-05-10T01:05:29;1.70;;;0.83;;
22357;SDS011;11346;50.150;8.150;2023-05-10T01:07:56;0.63;;;0.60;;
22357;SDS011;11346;50.150;8.150;2023-05-10T01:10:23;0.60;;;0.60;;
22357;SDS011;11346;50.150;8.150;2023-05-10T01:12:50;2.07;;;0.60;;
22357;SDS011;11346;50.150;8.150;2023-05-10T01:15:18;3.23;;;0.60;;
22357;SDS011;11346;50.150;8.150;2023-05-10T01:17:47;0.70;;;0.70;;
22357;SDS011;11346;50.150;8.150;2023-05-10T01:20:16;1.70;;;0.70;;
22357;SDS011;11346;50.150;8.150;2023-05-10T01:23:00;0.70;;;0.70;;
22357;SDS011;11346;50.150;8.150;2023-05-10T01:25:41;0.60;;;0.60;;
22357;SDS011;11346;50.150;8.150;2023-05-10T01:28:20;1.40;;;0.60;;
22357;SDS011;11346;50.150;8.150;2023-05-10T01:31:12;0.60;;;0.60;;
22357;SDS011;11346;50.150;8.150;2023-05-10T01:33:46;2.70;;;1.27;;
22357;SDS011;11346;50.150;8.150;2023-05-10T01:36:15;0.77;;;0.67;;
22357;SDS011;11346;50.150;8.150;2023-05-10T01:38:51;0.73;;;0.73;;
22357;SDS011;11346;50.150;8.150;2023-05-10T01:41:23;0.67;;;0.67;;
22357;SDS011;11346;50.150;8.150;2023-05-10T01:43:53;0.93;;;0.90;;
22357;SDS011;11346;50.150;8.150;2023-05-10T01:46:23;0.80;;;0.80;;
22357;SDS011;11346;50.150;8.150;2023-05-10T01:48:54;1.70;;;0.60;;
22357;SDS011;11346;50.150;8.150;2023-05-10T01:51:23;0.70;;;0.70;;
22357;SDS011;11346;50.150;8.150;2023-05-10T01:53:54;0.93;;;0.83;;
22357;SDS011;11346;50.150;8.150;2023-05-10T01:56:24;0.67;;;0.67;;
22357;SDS011;11346;50.150;8.150;2023-05-10T01:58:52;1.27;;;0.60;;
22357;SDS011;11346;50.150;8.150;2023-05-10T02:01:20;0.73;;;0.73;;
22357;SDS011;11346;50.150;8.150;2023-05-10T02:03:48;5.07;;;0.80;;
22357;SDS011;11346;50.150;8.150;2023-05-10T02:06:18;0.60;;;0.60;;
22357;SDS011;11346;50.150;8.150;2023-05-10T02:08:45;0.90;;;0.90;;
22357;SDS011;11346;50.150;8.150;2023-05-10T02:11:12;0.80;;;0.80;;
22357;SDS011;11346;50.150;8.150;2023-05-10T02:13:40;3.07;;;0.80;;
22357;SDS011;11346;50.150;8.150;2023-05-10T02:16:08;0.60;;;0.60;;
22357;SDS011;11346;50.150;8.150;2023-05-10T02:18:35;0.80;;;0.80;;
22357;SDS011;11346;50.150;8.150;2023-05-10T02:21:03;0.80;;;0.80;;
22357;SDS011;11346;50.150;8.150;2023-05-10T02:23:31;0.90;;;0.90;;
22357;SDS011;11346;50.150;8.150;2023-05-10T02:25:58;2.77;;;1.00;;
22357;SDS011;11346;50.150;8.150;2023-05-10T02:28:27;0.87;;;0.87;;
22357;SDS011;11346;50.150;8.150;2023-05-10T02:30:54;0.80;;;0.80;;
22357;SDS011;11346;50.150;8.150;2023-05-10T02:33:21;1.43;;;0.83;;
22357;SDS011;11346;50.150;8.150;2023-05-10T02:35:49;1.00;;;1.00;;
22357;SDS011;11346;50.150;8.150;2023-05-10T02:38:17;1.00;;;1.00;;
22357;SDS011;11346;50.150;8.150;2023-05-10T02:40:46;0.80;;;0.80;;
22357;SDS011;11346;50.150;8.150;2023-05-10T02:43:14;1.00;;;1.00;;
22357;SDS011;11346;50.150;8.150;2023-05-10T02:45:42;1.00;;;1.00;;
22357;SDS011;11346;50.150;8.150;2023-05-10T02:48:09;1.03;;;0.90;;
22357;SDS011;11346;50.150;8.150;2023-05-10T02:50:37;0.90;;;0.90;;
22357;SDS011;11346;50.150;8.150;2023-05-10T02:53:10;0.97;;;0.97;;
22357;SDS011;11346;50.150;8.150;2023-05-10T02:55:38;1.00;;;1.00;;
22357;SDS011;11346;50.150;8.150;2023-05-10T02:58:08;0.90;;;0.90;;
22357;SDS011;11346;50.150;8.150;2023-05-10T03:00:35;0.73;;;0.73;;
22357;SDS011;11346;50.150;8.150;2023-05-10T03:03:02;1.00;;;0.90;;
22357;SDS011;11346;50.150;8.150;2023-05-10T03:05:30;0.97;;;0.97;;
22357;SDS011;11346;50.150;8.150;2023-05-10T03:07:58;0.90;;;0.90;;
22357;SDS011;11346;50.150;8.150;2023-05-10T03:10:29;1.23;;;1.00;;
22357;SDS011;11346;50.150;8.150;2023-05-10T03:13:01;8.30;;;0.90;;
22357;SDS011;11346;50.150;8.150;2023-05-10T03:15:36;1.10;;;1.00;;
22357;SDS011;11346;50.150;8.150;2023-05-10T03:18:06;0.93;;;0.93;;
22357;SDS011;11346;50.150;8.150;2023-05-10T03:20:35;2.73;;;0.97;;
22357;SDS011;11346;50.150;8.150;2023-05-10T03:23:04;3.17;;;1.20;;
22357;SDS011;11346;50.150;8.150;2023-05-10T03:25:31;2.43;;;1.13;;
22357;SDS011;11346;50.150;8.150;2023-05-10T03:27:58;2.77;;;1.10;;
22357;SDS011;11346;50.150;8.150;2023-05-10T03:30:27;2.10;;;1.20;;
22357;SDS011;11346;50.150;8.150;2023-05-10T03:32:56;2.30;;;1.40;;
22357;SDS011;11346;50.150;8.150;2023-05-10T03:35:23;3.43;;;1.40;;
22357;SDS011;11346;50.150;8.150;2023-05-10T03:37:50;3.17;;;1.27;;
22357;SDS011;11346;50.150;8.150;2023-05-10T03:40:17;1.30;;;1.20;;
22357;SDS011;11346;50.150;8.150;2023-05-10T03:42:44;1.10;;;1.10;;
22357;SDS011;11346;50.150;8.150;2023-05-10T03:45:11;1.33;;;1.23;;
22357;SDS011;11346;50.150;8.150;2023-05-10T03:47:38;1.23;;;1.23;;
22357;SDS011;11346;50.150;8.150;2023-05-10T03:50:07;1.87;;;1.40;;
22357;SDS011;11346;50.150;8.150;2023-05-10T03:52:35;3.23;;;1.20;;
22357;SDS011;11346;50.150;8.150;2023-05-10T03:55:04;2.10;;;1.10;;
22357;SDS011;11346;50.150;8.150;2023-05-10T03:57:31;3.90;;;1.50;;
22357;SDS011;11346;50.150;8.150;2023-05-10T03:59:58;2.50;;;1.30;;
22357;SDS011;11346;50.150;8.150;2023-05-10T04:02:25;1.80;;;1.20;;
22357;SDS011;11346;50.150;8.150;2023-05-10T04:04:53;2.47;;;1.33;;
22357;SDS011;11346;50.150;8.150;2023-05-10T04:07:21;1.57;;;1.47;;
22357;SDS011;11346;50.150;8.150;2023-05-10T04:09:49;3.23;;;1.67;;
22357;SDS011;11346;50.150;8.150;2023-05-10T04:12:16;1.47;;;1.30;;
22357;SDS011;11346;50.150;8.150;2023-05-10T04:14:43;1.90;;;1.43;;
22357;SDS011;11346;50.150;8.150;2023-05-10T04:17:10;3.27;;;1.30;;
22357;SDS011;11346;50.150;8.150;2023-05-10T04:19:37;1.43;;;1.33;;
22357;SDS011;11346;50.150;8.150;2023-05-10T04:22:04;1.53;;;1.50;;
22357;SDS011;11346;50.150;8.150;2023-05-10T04:24:32;2.03;;;1.50;;
22357;SDS011;11346;50.150;8.150;2023-05-10T04:26:59;4.23;;;1.40;;
22357;SDS011;11346;50.150;8.150;2023-05-10T04:29:26;2.37;;;1.50;;
22357;SDS011;11346;50.150;8.150;2023-05-10T04:31:54;3.50;;;1.50;;
22357;SDS011;11346;50.150;8.150;2023-05-10T04:34:21;1.57;;;1.47;;
22357;SDS011;11346;50.150;8.150;2023-05-10T04:36:48;2.57;;;1.63;;
22357;SDS011;11346;50.150;8.150;2023-05-10T04:39:15;1.70;;;1.60;;
22357;SDS011;11346;50.150;8.150;2023-05-10T04:41:44;7.73;;;1.90;;
22357;SDS011;11346;50.150;8.150;2023-05-10T04:44:11;1.80;;;1.70;;
22357;SDS011;11346;50.150;8.150;2023-05-10T04:46:38;1.80;;;1.70;;
22357;SDS011;11346;50.150;8.150;2023-05-10T04:49:05;4.70;;;1.90;;
22357;SDS011;11346;50.150;8.150;2023-05-10T04:51:32;1.90;;;1.80;;
22357;SDS011;11346;50.150;8.150;2023-05-10T04:53:59;3.33;;;1.80;;
22357;SDS011;11346;50.150;8.150;2023-05-10T04:56:26;1.90;;;1.70;;
22357;SDS011;11346;50.150;8.150;2023-05-10T04:58:54;6.47;;;2.20;;
22357;SDS011;11346;50.150;8.150;2023-05-10T05:01:21;3.50;;;1.90;;
22357;SDS011;11346;50.150;8.150;2023-05-10T05:03:49;3.40;;;2.27;;
22357;SDS011;11346;50.150;8.150;2023-05-10T05:06:17;3.43;;;2.10;;
22357;SDS011;11346;50.150;8.150;2023-05-10T05:08:45;4.07;;;1.90;;
22357;SDS011;11346;50.150;8.150;2023-05-10T05:11:14;3.37;;;1.70;;
22357;SDS011;11346;50.150;8.150;2023-05-10T05:13:41;8.13;;;2.20;;
22357;SDS011;11346;50.150;8.150;2023-05-10T05:16:09;5.07;;;2.20;;
22357;SDS011;11346;50.150;8.150;2023-05-10T05:18:36;2.27;;;1.80;;
22357;SDS011;11346;50.150;8.150;2023-05-10T05:21:12;2.30;;;2.10;;
22357;SDS011;11346;50.150;8.150;2023-05-10T05:23:39;8.90;;;2.10;;
22357;SDS011;11346;50.150;8.150;2023-05-10T05:26:06;2.70;;;2.00;;
22357;SDS011;11346;50.150;8.150;2023-05-10T05:28:33;2.17;;;1.90;;
22357;SDS011;11346;50.150;8.150;2023-05-10T05:31:02;4.93;;;1.93;;
22357;SDS011;11346;50.150;8.150;2023-05-10T05:33:30;3.10;;;2.10;;
22357;SDS011;11346;50.150;8.150;2023-05-10T05:35:59;3.27;;;2.47;;
22357;SDS011;11346;50.150;8.150;2023-05-10T05:38:26;2.80;;;2.10;;
22357;SDS011;11346;50.150;8.150;2023-05-10T05:40:53;2.00;;;1.90;;
22357;SDS011;11346;50.150;8.150;2023-05-10T05:43:20;3.40;;;2.23;;
22357;SDS011;11346;50.150;8.150;2023-05-10T05:45:47;3.57;;;2.10;;
22357;SDS011;11346;50.150;8.150;2023-05-10T05:48:14;2.90;;;2.20;;
22357;SDS011;11346;50.150;8.150;2023-05-10T05:50:43;3.17;;;2.33;;
22357;SDS011;11346;50.150;8.150;2023-05-10T05:53:10;2.77;;;2.23;;
22357;SDS011;11346;50.150;8.150;2023-05-10T05:55:37;4.63;;;2.20;;
22357;SDS011;11346;50.150;8.150;2023-05-10T05:58:04;2.43;;;2.10;;
22357;SDS011;11346;50.150;8.150;2023-05-10T06:00:31;4.07;;;2.30;;
22357;SDS011;11346;50.150;8.150;2023-05-10T06:02:58;4.97;;;2.10;;
22357;SDS011;11346;50.150;8.150;2023-05-10T06:05:25;6.23;;;2.70;;
22357;SDS011;11346;50.150;8.150;2023-05-10T06:07:53;7.33;;;2.30;;
22357;SDS011;11346;50.150;8.150;2023-05-10T06:10:22;3.23;;;2.00;;
22357;SDS011;11346;50.150;8.150;2023-05-10T06:12:50;4.33;;;2.00;;
22357;SDS011;11346;50.150;8.150;2023-05-10T06:15:17;3.93;;;1.80;;
22357;SDS011;11346;50.150;8.150;2023-05-10T06:17:44;3.63;;;2.10;;
22357;SDS011;11346;50.150;8.150;2023-05-10T06:20:14;3.03;;;1.80;;
22357;SDS011;11346;50.150;8.150;2023-05-10T06:22:41;4.03;;;1.73;;
22357;SDS011;11346;50.150;8.150;2023-05-10T06:25:10;4.87;;;2.17;;
22357;SDS011;11346;50.150;8.150;2023-05-10T06:27:37;2.50;;;1.80;;
22357;SDS011;11346;50.150;8.150;2023-05-10T06:30:05;4.23;;;1.90;;
22357;SDS011;11346;50.150;8.150;2023-05-10T06:32:33;1.87;;;1.77;;
22357;SDS011;11346;50.150;8.150;2023-05-10T06:35:00;4.67;;;2.17;;
22357;SDS011;11346;50.150;8.150;2023-05-10T06:37:27;2.00;;;1.80;;
22357;SDS011;11346;50.150;8.150;2023-05-10T06:39:54;2.10;;;1.90;;
22357;SDS011;11346;50.150;8.150;2023-05-10T06:42:22;2.43;;;1.97;;
22357;SDS011;11346;50.150;8.150;2023-05-10T06:44:50;2.27;;;1.87;;
22357;SDS011;11346;50.150;8.150;2023-05-10T06:47:17;2.20;;;1.80;;
22357;SDS011;11346;50.150;8.150;2023-05-10T06:49:44;3.13;;;1.80;;
22357;SDS011;11346;50.150;8.150;2023-05-10T06:52:11;1.80;;;1.70;;
22357;SDS011;11346;50.150;8.150;2023-05-10T06:54:38;4.10;;;1.60;;
22357;SDS011;11346;50.150;8.150;2023-05-10T06:57:05;2.93;;;1.80;;
22357;SDS011;11346;50.150;8.150;2023-05-10T06:59:33;6.77;;;1.80;;
22357;SDS011;11346;50.150;8.150;2023-05-10T07:02:01;3.80;;;1.80;;
22357;SDS011;11346;50.150;8.150;2023-05-10T07:04:28;2.77;;;1.90;;
22357;SDS011;11346;50.150;8.150;2023-05-10T07:06:55;4.20;;;2.00;;
22357;SDS011;11346;50.150;8.150;2023-05-10T07:09:23;3.63;;;2.00;;
22357;SDS011;11346;50.150;8.150;2023-05-10T07:11:50;3.87;;;2.23;;
22357;SDS011;11346;50.150;8.150;2023-05-10T07:14:17;3.57;;;2.13;;
22357;SDS011;11346;50.150;8.150;2023-05-10T07:16:46;2.77;;;1.87;;
22357;SDS011;11346;50.150;8.150;2023-05-10T07:19:13;3.47;;;2.00;;
22357;SDS011;11346;50.150;8.150;2023-05-10T07:21:40;6.97;;;2.37;;
22357;SDS011;11346;50.150;8.150;2023-05-10T07:24:08;3.17;;;1.87;;
22357;SDS011;11346;50.150;8.150;2023-05-10T07:26:35;2.70;;;2.00;;
22357;SDS011;11346;50.150;8.150;2023-05-10T07:29:02;3.70;;;1.90;;
22357;SDS011;11346;50.150;8.150;2023-05-10T07:31:29;3.87;;;2.10;;
22357;SDS011;11346;50.150;8.150;2023-05-10T07:33:57;4.77;;;2.20;;
22357;SDS011;11346;50.150;8.150;2023-05-10T07:36:24;1.83;;;1.70;;
22357;SDS011;11346;50.150;8.150;2023-05-10T07:38:51;2.90;;;2.10;;
22357;SDS011;11346;50.150;8.150;2023-05-10T07:41:18;4.27;;;2.17;;
22357;SDS011;11346;50.150;8.150;2023-05-10T07:43:46;3.87;;;2.20;;
22357;SDS011;11346;50.150;8.150;2023-05-10T07:46:13;7.30;;;2.13;;
22357;SDS011;11346;50.150;8.150;2023-05-10T07:48:40;2.63;;;2.10;;
22357;SDS011;11346;50.150;8.150;2023-05-10T07:51:08;4.17;;;1.97;;
22357;SDS011;11346;50.150;8.150;2023-05-10T07:53:35;3.13;;;2.03;;
22357;SDS011;11346;50.150;8.150;2023-05-10T07:56:19;3.97;;;1.90;;
22357;SDS011;11346;50.150;8.150;2023-05-10T07:58:46;2.70;;;1.90;;
22357;SDS011;11346;50.150;8.150;2023-05-10T08:01:13;4.67;;;1.80;;
22357;SDS011;11346;50.150;8.150;2023-05-10T08:03:40;7.43;;;2.00;;
22357;SDS011;11346;50.150;8.150;2023-05-10T08:06:08;2.30;;;1.63;;
22357;SDS011;11346;50.150;8.150;2023-05-10T08:08:36;3.73;;;2.00;;
22357;SDS011;11346;50.150;8.150;2023-05-10T08:11:03;2.20;;;1.80;;
22357;SDS011;11346;50.150;8.150;2023-05-10T08:13:30;3.23;;;2.00;;
22357;SDS011;11346;50.150;8.150;2023-05-10T08:15:57;3.07;;;1.73;;
22357;SDS011;11346;50.150;8.150;2023-05-10T08:18:24;4.00;;;1.87;;
22357;SDS011;11346;50.150;8.150;2023-05-10T08:20:51;1.70;;;1.60;;
22357;SDS011;11346;50.150;8.150;2023-05-10T08:23:19;4.27;;;2.00;;
22357;SDS011;11346;50.150;8.150;2023-05-10T08:25:46;5.57;;;1.63;;
22357;SDS011;11346;50.150;8.150;2023-05-10T08:28:13;3.67;;;1.60;;
22357;SDS011;11346;50.150;8.150;2023-05-10T08:30:40;1.60;;;1.50;;
22357;SDS011;11346;50.150;8.150;2023-05-10T08:33:07;1.97;;;1.60;;
22357;SDS011;11346;50.150;8.150;2023-05-10T08:35:34;4.07;;;1.77;;
22357;SDS011;11346;50.150;8.150;2023-05-10T08:38:01;4.63;;;2.20;;
22357;SDS011;11346;50.150;8.150;2023-05-10T08:40:30;3.57;;;2.00;;
22357;SDS011;11346;50.150;8.150;2023-05-10T08:42:58;3.23;;;1.90;;
22357;SDS011;11346;50.150;8.150;2023-05-10T08:45:25;2.50;;;1.80;;
22357;SDS011;11346;50.150;8.150;2023-05-10T08:47:54;2.47;;;2.00;;
22357;SDS011;11346;50.150;8.150;2023-05-10T08:50:21;3.60;;;2.17;;
22357;SDS011;11346;50.150;8.150;2023-05-10T08:52:48;3.20;;;2.00;;
22357;SDS011;11346;50.150;8.150;2023-05-10T08:55:17;2.37;;;1.80;;
22357;SDS011;11346;50.150;8.150;2023-05-10T08:57:46;5.33;;;2.00;;
22357;SDS011;11346;50.150;8.150;2023-05-10T09:00:13;2.20;;;2.00;;
22357;SDS011;11346;50.150;8.150;2023-05-10T09:02:41;7.30;;;2.47;;
22357;SDS011;11346;50.150;8.150;2023-05-10T09:05:09;3.00;;;2.03;;
22357;SDS011;11346;50.150;8.150;2023-05-10T09:07:36;1.97;;;1.70;;
22357;SDS011;11346;50.150;8.150;2023-05-10T09:10:04;2.03;;;1.93;;
22357;SDS011;11346;50.150;8.150;2023-05-10T09:12:31;2.00;;;1.70;;
22357;SDS011;11346;50.150;8.150;2023-05-10T09:15:00;1.50;;;1.40;;
22357;SDS011;11346;50.150;8.150;2023-05-10T09:17:27;1.47;;;1.37;;
22357;SDS011;11346;50.150;8.150;2023-05-10T09:19:57;1.60;;;1.50;;
22357;SDS011;11346;50.150;8.150;2023-05-10T09:22:24;3.13;;;1.20;;
22357;SDS011;11346;50.150;8.150;2023-05-10T09:25:02;1.40;;;1.30;;
22357;SDS011;11346;50.150;8.150;2023-05-10T09:27:30;1.87;;;1.07;;
22357;SDS011;11346;50.150;8.150;2023-05-10T09:29:57;3.27;;;1.40;;
22357;SDS011;11346;50.150;8.150;2023-05-10T09:32:29;1.00;;;0.83;;
22357;SDS011;11346;50.150;8.150;2023-05-10T09:35:05;1.97;;;1.30;;
22357;SDS011;11346;50.150;8.150;2023-05-10T09:37:32;2.33;;;1.07;;
22357;SDS011;11346;50.150;8.150;2023-05-10T09:39:59;2.63;;;0.97;;
22357;SDS011;11346;50.150;8.150;2023-05-10T09:42:26;3.07;;;0.90;;
22357;SDS011;11346;50.150;8.150;2023-05-10T09:44:53;2.00;;;1.00;;
22357;SDS011;11346;50.150;8.150;2023-05-10T09:47:20;3.63;;;0.97;;
22357;SDS011;11346;50.150;8.150;2023-05-10T09:49:50;1.73;;;1.00;;
22357;SDS011;11346;50.150;8.150;2023-05-10T09:52:17;1.10;;;1.00;;
22357;SDS011;11346;50.150;8.150;2023-05-10T09:54:45;2.73;;;1.23;;
22357;SDS011;11346;50.150;8.150;2023-05-10T09:57:19;1.73;;;1.10;;
22357;SDS011;11346;50.150;8.150;2023-05-10T09:59:47;0.90;;;0.90;;
22357;SDS011;11346;50.150;8.150;2023-05-10T10:02:14;1.10;;;1.00;;
22357;SDS011;11346;50.150;8.150;2023-05-10T10:04:41;2.03;;;1.10;;
22357;SDS011;11346;50.150;8.150;2023-05-10T10:07:09;2.00;;;1.03;;
22357;SDS011;11346;50.150;8.150;2023-05-10T10:09:36;1.07;;;0.90;;
22357;SDS011;11346;50.150;8.150;2023-05-10T10:12:03;5.30;;;1.00;;
22357;SDS011;11346;50.150;8.150;2023-05-10T10:14:30;1.43;;;0.70;;
22357;SDS011;11346;50.150;8.150;2023-05-10T10:16:57;3.03;;;1.13;;
22357;SDS011;11346;50.150;8.150;2023-05-10T10:19:26;1.30;;;0.80;;
22357;SDS011;11346;50.150;8.150;2023-05-10T10:21:54;4.63;;;0.93;;
22357;SDS011;11346;50.150;8.150;2023-05-10T10:24:22;0.70;;;0.70;;
22357;SDS011;11346;50.150;8.150;2023-05-10T10:26:49;0.80;;;0.80;;
22357;SDS011;11346;50.150;8.150;2023-05-10T10:29:21;1.30;;;0.90;;
22357;SDS011;11346;50.150;8.150;2023-05-10T10:31:51;2.20;;;0.90;;
22357;SDS011;11346;50.150;8.150;2023-05-10T10:34:22;1.07;;;0.97;;
22357;SDS011;11346;50.150;8.150;2023-05-10T10:36:52;1.97;;;0.90;;
22357;SDS011;11346;50.150;8.150;2023-05-10T10:39:19;2.90;;;0.87;;
22357;SDS011;11346;50.150;8.150;2023-05-10T10:41:51;1.23;;;0.80;;
22357;SDS011;11346;50.150;8.150;2023-05-10T10:44:25;1.27;;;0.80;;
22357;SDS011;11346;50.150;8.150;2023-05-10T10:46:58;3.53;;;1.80;;
22357;SDS011;11346;50.150;8.150;2023-05-10T10:49:26;2.00;;;0.80;;
22357;SDS011;11346;50.150;8.150;2023-05-10T10:54:35;0.80;;;0.80;;
22357;SDS011;11346;50.150;8.150;2023-05-10T10:57:13;1.20;;;0.93;;
22357;SDS011;11346;50.150;8.150;2023-05-10T10:59:43;1.80;;;0.90;;
22357;SDS011;11346;50.150;8.150;2023-05-10T11:02:10;0.90;;;0.80;;
22357;SDS011;11346;50.150;8.150;2023-05-10T11:04:57;1.80;;;1.10;;
22357;SDS011;11346;50.150;8.150;2023-05-10T11:07:24;4.33;;;0.80;;
22357;SDS011;11346;50.150;8.150;2023-05-10T11:09:51;3.50;;;1.00;;
22357;SDS011;11346;50.150;8.150;2023-05-10T11:12:19;0.70;;;0.70;;
22357;SDS011;11346;50.150;8.150;2023-05-10T11:14:49;1.60;;;0.90;;
22357;SDS011;11346;50.150;8.150;2023-05-10T11:17:22;1.77;;;0.83;;
22357;SDS011;11346;50.150;8.150;2023-05-10T11:20:06;2.73;;;0.90;;
22357;SDS011;11346;50.150;8.150;2023-05-10T11:22:48;0.87;;;0.87;;
22357;SDS011;11346;50.150;8.150;2023-05-10T11:25:16;0.80;;;0.80;;
22357;SDS011;11346;50.150;8.150;2023-05-10T11:27:45;5.30;;;1.23;;
22357;SDS011;11346;50.150;8.150;2023-05-10T11:30:14;0.87;;;0.87;;
22357;SDS011;11346;50.150;8.150;2023-05-10T11:32:41;1.03;;;0.80;;
22357;SDS011;11346;50.150;8.150;2023-05-10T11:35:08;1.20;;;1.10;;
22357;SDS011;11346;50.150;8.150;2023-05-10T11:37:36;1.90;;;0.83;;
22357;SDS011;11346;50.150;8.150;2023-05-10T11:40:06;1.70;;;0.80;;
22357;SDS011;11346;50.150;8.150;2023-05-10T11:42:35;0.70;;;0.70;;
22357;SDS011;11346;50.150;8.150;2023-05-10T11:45:04;0.97;;;0.70;;
22357;SDS011;11346;50.150;8.150;2023-05-10T11:47:31;1.03;;;0.80;;
22357;SDS011;11346;50.150;8.150;2023-05-10T11:50:00;2.40;;;0.80;;
22357;SDS011;11346;50.150;8.150;2023-05-10T11:52:27;0.93;;;0.93;;
22357;SDS011;11346;50.150;8.150;2023-05-10T11:54:55;1.80;;;0.60;;
22357;SDS011;11346;50.150;8.150;2023-05-10T11:57:25;4.07;;;0.83;;
22357;SDS011;11346;50.150;8.150;2023-05-10T11:59:53;2.90;;;0.80;;
22357;SDS011;11346;50.150;8.150;2023-05-10T12:02:21;0.90;;;0.90;;
22357;SDS011;11346;50.150;8.150;2023-05-10T12:04:49;0.53;;;0.53;;
22357;SDS011;11346;50.150;8.150;2023-05-10T12:07:16;2.10;;;0.70;;
22357;SDS011;11346;50.150;8.150;2023-05-10T12:09:43;2.83;;;0.60;;
22357;SDS011;11346;50.150;8.150;2023-05-10T12:12:10;2.50;;;0.70;;
22357;SDS011;11346;50.150;8.150;2023-05-10T12:14:37;0.60;;;0.50;;
22357;SDS011;11346;50.150;8.150;2023-05-10T12:17:04;0.77;;;0.77;;
22357;SDS011;11346;50.150;8.150;2023-05-10T12:19:37;0.70;;;0.60;;
22357;SDS011;11346;50.150;8.150;2023-05-10T12:22:05;0.60;;;0.60;;
22357;SDS011;11346;50.150;8.150;2023-05-10T12:24:33;1.40;;;0.60;;
22357;SDS011;11346;50.150;8.150;2023-05-10T12:27:04;0.70;;;0.70;;
22357;SDS011;11346;50.150;8.150;2023-05-10T12:29:32;1.07;;;0.80;;
22357;SDS011;11346;50.150;8.150;2023-05-10T12:32:00;0.77;;;0.77;;
22357;SDS011;11346;50.150;8.150;2023-05-10T12:34:29;1.47;;;0.80;;
22357;SDS011;11346;50.150;8.150;2023-05-10T12:36:58;0.70;;;0.70;;
22357;SDS011;11346;50.150;8.150;2023-05-10T12:39:25;3.50;;;1.50;;
22357;SDS011;11346;50.150;8.150;2023-05-10T12:41:52;1.00;;;0.90;;
22357;SDS011;11346;50.150;8.150;2023-05-10T12:44:19;8.33;;;1.07;;
22357;SDS011;11346;50.150;8.150;2023-05-10T12:46:46;4.70;;;0.80;;
22357;SDS011;11346;50.150;8.150;2023-05-10T12:49:13;1.70;;;0.80;;
22357;SDS011;11346;50.150;8.150;2023-05-10T12:51:41;1.27;;;0.80;;
22357;SDS011;11346;50.150;8.150;2023-05-10T12:54:10;2.03;;;0.97;;
22357;SDS011;11346;50.150;8.150;2023-05-10T12:56:37;1.90;;;0.70;;
22357;SDS011;11346;50.150;8.150;2023-05-10T12:59:05;2.20;;;0.70;;
22357;SDS011;11346;50.150;8.150;2023-05-10T13:01:32;5.23;;;1.10;;
22357;SDS011;11346;50.150;8.150;2023-05-10T13:03:59;0.73;;;0.73;;
22357;SDS011;11346;50.150;8.150;2023-05-10T13:06:26;0.70;;;0.70;;
22357;SDS011;11346;50.150;8.150;2023-05-10T13:08:53;2.67;;;1.00;;
22357;SDS011;11346;50.150;8.150;2023-05-10T13:11:23;0.77;;;0.77;;
22357;SDS011;11346;50.150;8.150;2023-05-10T13:13:50;1.00;;;1.00;;
22357;SDS011;11346;50.150;8.150;2023-05-10T13:16:17;1.07;;;0.63;;
22357;SDS011;11346;50.150;8.150;2023-05-10T13:18:44;2.07;;;0.70;;
22357;SDS011;11346;50.150;8.150;2023-05-10T13:21:11;0.77;;;0.70;;
22357;SDS011;11346;50.150;8.150;2023-05-10T13:23:39;0.60;;;0.60;;
22357;SDS011;11346;50.150;8.150;2023-05-10T13:26:06;3.00;;;0.60;;
22357;SDS011;11346;50.150;8.150;2023-05-10T13:28:34;0.70;;;0.70;;
22357;SDS011;11346;50.150;8.150;2023-05-10T13:31:03;2.07;;;0.63;;
22357;SDS011;11346;50.150;8.150;2023-05-10T13:33:30;1.00;;;0.80;;
22357;SDS011;11346;50.150;8.150;2023-05-10T13:35:57;0.70;;;0.70;;
22357;SDS011;11346;50.150;8.150;2023-05-10T13:38:24;0.70;;;0.70;;
22357;SDS011;11346;50.150;8.150;2023-05-10T13:40:51;0.67;;;0.67;;
22357;SDS011;11346;50.150;8.150;2023-05-10T13:43:18;0.87;;;0.80;;
22357;SDS011;11346;50.150;8.150;2023-05-10T13:45:47;2.63;;;0.83;;
22357;SDS011;11346;50.150;8.150;2023-05-10T13:48:14;0.90;;;0.90;;
22357;SDS011;11346;50.150;8.150;2023-05-10T13:50:41;1.00;;;1.00;;
22357;SDS011;11346;50.150;8.150;2023-05-10T13:53:08;2.27;;;0.80;;
22357;SDS011;11346;50.150;8.150;2023-05-10T13:55:35;1.90;;;1.37;;
22357;SDS011;11346;50.150;8.150;2023-05-10T13:58:02;0.90;;;0.90;;
22357;SDS011;11346;50.150;8.150;2023-05-10T14:00:29;0.70;;;0.70;;
22357;SDS011;11346;50.150;8.150;2023-05-10T14:02:58;0.87;;;0.87;;
22357;SDS011;11346;50.150;8.150;2023-05-10T14:05:25;1.07;;;0.90;;
22357;SDS011;11346;50.150;8.150;2023-05-10T14:07:52;1.93;;;0.83;;
22357;SDS011;11346;50.150;8.150;2023-05-10T14:10:19;0.93;;;0.93;;
22357;SDS011;11346;50.150;8.150;2023-05-10T14:12:46;1.17;;;1.00;;
22357;SDS011;11346;50.150;8.150;2023-05-10T14:15:13;0.90;;;0.90;;
22357;SDS011;11346;50.150;8.150;2023-05-10T14:17:40;2.37;;;0.93;;
22357;SDS011;11346;50.150;8.150;2023-05-10T14:20:09;1.00;;;0.90;;
22357;SDS011;11346;50.150;8.150;2023-05-10T14:22:36;2.40;;;0.90;;
22357;SDS011;11346;50.150;8.150;2023-05-10T14:25:04;0.80;;;0.77;;
22357;SDS011;11346;50.150;8.150;2023-05-10T14:27:31;2.93;;;1.00;;
22357;SDS011;11346;50.150;8.150;2023-05-10T14:29:58;0.97;;;0.97;;
22357;SDS011;11346;50.150;8.150;2023-05-10T14:32:25;1.07;;;1.07;;
22357;SDS011;11346;50.150;8.150;2023-05-10T14:34:53;1.50;;;1.00;;
22357;SDS011;11346;50.150;8.150;2023-05-10T14:37:21;3.50;;;0.80;;
22357;SDS011;11346;50.150;8.150;2023-05-10T14:39:48;3.63;;;1.10;;
22357;SDS011;11346;50.150;8.150;2023-05-10T14:42:15;1.20;;;1.10;;
22357;SDS011;11346;50.150;8.150;2023-05-10T14:44:42;2.47;;;1.00;;
22357;SDS011;11346;50.150;8.150;2023-05-10T14:47:09;2.87;;;1.00;;
22357;SDS011;11346;50.150;8.150;2023-05-10T14:49:36;1.00;;;1.00;;
22357;SDS011;11346;50.150;8.150;2023-05-10T14:52:03;1.10;;;1.00;;
22357;SDS011;11346;50.150;8.150;2023-05-10T14:54:32;1.03;;;1.03;;
22357;SDS011;11346;50.150;8.150;2023-05-10T14:56:59;1.30;;;1.20;;